Time;durP1;ratioP1;P1;durP2;ratioP2;P2;SDS_P1;SDS_P2;PMS_P1;PMS_P2;Temp;Humidity;BMP_temperature;BMP_pressure;BME280_temperature;BME280_humidity;BME280_pressure;Samples;Min_cycle;Max_cycle;Signal;HPM_P1;HPM_P2
2023/11/26 00:00:12;;;;;;;16.45;9.33;;;;;;;-0.30;87.66;98800.38;1755434;81;27537;-51
2023/11/26 00:02:41;;;;;;;15.05;9.38;;;;;;;-0.36;87.33;98798.81;1755345;81;25617;-51
2023/11/26 00:05:08;;;;;;;16.97;9.78;;;;;;;-0.38;87.37;98807.05;1755462;81;25564;-52
2023/11/26 00:07:35;;;;;;;15.28;9.83;;;;;;;-0.40;87.33;98802.55;1755332;81;25969;-51
2023/11/26 00:10:04;;;;;;;18.75;10.20;;;;;;;-0.45;87.04;98807.34;1755470;81;25585;-51
2023/11/26 00:12:31;;;;;;;16.42;9.25;;;;;;;-0.51;86.74;98807.63;1755693;81;28030;-50
2023/11/26 00:14:57;;;;;;;17.60;11.05;;;;;;;-0.56;86.81;98820.42;1755323;81;25409;-51
2023/11/26 00:17:25;;;;;;;17.62;9.45;;;;;;;-0.61;86.82;98820.44;1755450;81;25554;-52
2023/11/26 00:19:51;;;;;;;17.42;10.58;;;;;;;-0.66;86.89;98822.57;1755423;81;25559;-50
2023/11/26 00:22:18;;;;;;;19.00;10.63;;;;;;;-0.70;87.06;98818.84;1755471;81;25461;-51
2023/11/26 00:24:44;;;;;;;17.25;9.83;;;;;;;-0.69;87.15;98826.30;1755390;81;27381;-52
2023/11/26 00:27:11;;;;;;;15.95;9.95;;;;;;;-0.71;87.14;98825.78;1755321;81;25617;-51
2023/11/26 00:29:42;;;;;;;17.52;10.50;;;;;;;-0.70;87.34;98831.34;1755435;81;25619;-51
2023/11/26 00:32:11;;;;;;;16.75;10.08;;;;;;;-0.69;87.42;98839.58;1755097;81;25413;-51
2023/11/26 00:34:38;;;;;;;16.17;10.48;;;;;;;-0.71;87.23;98840.39;1755412;81;25490;-51
2023/11/26 00:37:04;;;;;;;20.72;10.72;;;;;;;-0.74;87.28;98849.67;1755431;81;27392;-51
2023/11/26 00:39:31;;;;;;;17.42;10.80;;;;;;;-0.72;87.27;98848.08;1755352;81;25628;-51
2023/11/26 00:41:58;;;;;;;17.85;10.18;;;;;;;-0.74;87.25;98852.88;1755346;81;25549;-51
2023/11/26 00:44:25;;;;;;;16.60;11.48;;;;;;;-0.77;87.25;98847.04;1755412;81;25619;-51
2023/11/26 00:46:53;;;;;;;22.85;10.48;;;;;;;-0.76;87.33;98854.47;1731738;81;25667;-52
2023/11/26 00:49:20;;;;;;;20.27;10.18;;;;;;;-0.77;87.31;98852.35;1755358;81;27315;-51
2023/11/26 00:51:46;;;;;;;17.85;10.00;;;;;;;-0.79;87.34;98844.38;1755301;81;25572;-50
2023/11/26 00:54:13;;;;;;;17.82;9.38;;;;;;;-0.79;87.29;98845.16;1755406;81;25634;-51
2023/11/26 00:56:40;;;;;;;16.42;9.55;;;;;;;-0.78;87.35;98850.75;1755333;81;26090;-50
2023/11/26 00:59:07;;;;;;;17.92;10.35;;;;;;;-0.80;87.22;98847.57;1755426;81;25393;-51
2023/11/26 01:01:35;;;;;;;12.93;8.83;;;;;;;-0.81;87.25;98849.95;1755331;81;27336;-51
2023/11/26 01:04:03;;;;;;;18.32;9.60;;;;;;;-0.82;87.17;98851.03;1755265;81;25734;-50
2023/11/26 01:06:29;;;;;;;20.45;10.38;;;;;;;-0.85;86.97;98852.08;1755430;81;25582;-54
2023/11/26 01:08:56;;;;;;;19.30;9.73;;;;;;;-0.88;86.98;98847.33;1755412;81;25626;-55
2023/11/26 01:11:22;;;;;;;16.62;9.93;;;;;;;-0.90;87.07;98855.56;1755487;81;25535;-53
2023/11/26 01:13:50;;;;;;;15.68;8.95;;;;;;;-0.91;87.11;98848.65;1756001;81;27328;-51
2023/11/26 01:16:17;;;;;;;15.50;8.93;;;;;;;-0.92;87.07;98853.68;1755734;81;25507;-55
2023/11/26 01:18:44;;;;;;;15.30;9.25;;;;;;;-0.94;87.01;98859.80;1755573;81;25625;-56
2023/11/26 01:21:13;;;;;;;19.90;10.32;;;;;;;-0.95;87.15;98860.88;1755396;81;25820;-55
2023/11/26 01:23:39;;;;;;;16.73;9.85;;;;;;;-0.97;87.06;98854.50;1755466;81;25596;-56
2023/11/26 01:26:06;;;;;;;50.52;29.27;;;;;;;-1.03;86.90;98847.59;1755448;81;27307;-55
2023/11/26 01:28:33;;;;;;;38.42;21.68;;;;;;;-1.01;87.21;98853.97;1755344;81;25386;-56
2023/11/26 01:31:03;;;;;;;15.98;9.75;;;;;;;-1.02;87.24;98853.19;1755532;81;25513;-52
2023/11/26 01:33:29;;;;;;;18.23;9.78;;;;;;;-1.05;87.14;98861.67;1731813;81;25814;-51
2023/11/26 01:35:56;;;;;;;18.23;10.23;;;;;;;-1.08;87.18;98862.20;1755451;81;25589;-52
2023/11/26 01:38:23;;;;;;;16.55;8.38;;;;;;;-1.10;87.38;98872.30;1755462;81;27328;-52
2023/11/26 01:40:49;;;;;;;19.50;10.60;;;;;;;-1.11;87.37;98875.21;1755306;81;25670;-51
2023/11/26 01:43:24;;;;;;;15.00;9.55;;;;;;;-1.11;87.48;98875.21;1755401;81;25450;-52
2023/11/26 01:45:56;;;;;;;16.10;9.30;;;;;;;-1.12;87.59;98875.75;1728222;81;26152;-52
2023/11/26 01:48:23;;;;;;;17.17;9.95;;;;;;;-1.14;87.48;98883.98;1754688;81;25468;-52
2023/11/26 01:50:50;;;;;;;14.53;9.48;;;;;;;-1.16;87.46;98874.67;1755374;81;27479;-50
2023/11/26 01:53:17;;;;;;;13.68;8.58;;;;;;;-1.20;87.44;98879.72;1755311;81;25555;-54
2023/11/26 01:55:44;;;;;;;16.85;8.85;;;;;;;-1.21;87.49;98876.00;1753803;81;25696;-51
2023/11/26 01:58:11;;;;;;;13.08;8.05;;;;;;;-1.25;87.42;98885.56;1754247;81;26617;-52
2023/11/26 02:00:39;;;;;;;14.40;8.73;;;;;;;-1.27;87.51;98881.85;1754457;81;25717;-51
2023/11/26 02:03:06;;;;;;;12.40;8.18;;;;;;;-1.26;87.64;98878.66;1754403;81;28230;-50
2023/11/26 02:05:34;;;;;;;12.95;8.40;;;;;;;-1.27;87.78;98881.85;1754414;81;25717;-50
2023/11/26 02:08:01;;;;;;;12.88;8.85;;;;;;;-1.26;87.87;98882.64;1754425;81;25716;-52
2023/11/26 02:10:28;;;;;;;12.25;8.25;;;;;;;-1.27;87.87;98885.83;1754426;81;26358;-51
2023/11/26 02:13:06;;;;;;;13.62;8.70;;;;;;;-1.27;87.81;98881.06;1754761;81;25621;-51
2023/11/26 02:15:35;;;;;;;13.08;8.18;;;;;;;-1.26;87.88;98882.13;1755393;81;27345;-51
2023/11/26 02:18:03;;;;;;;13.78;8.25;;;;;;;-1.30;87.55;98885.03;1721206;83;35395;-51
2023/11/26 02:20:30;;;;;;;15.55;8.80;;;;;;;-1.29;87.60;98889.80;1746555;81;25413;-51
2023/11/26 02:22:57;;;;;;;12.85;8.40;;;;;;;-1.35;87.50;98882.38;1745267;82;25999;-52
2023/11/26 02:25:30;;;;;;;12.40;8.88;;;;;;;-1.38;87.44;98889.53;1747150;82;25397;-55
2023/11/26 02:27:55;;;;;;;11.83;8.90;;;;;;;-1.38;87.43;98888.20;1746583;81;27345;-55
2023/11/26 02:30:22;;;;;;;11.60;7.95;;;;;;;-1.40;87.58;98899.61;1746731;82;25390;-55
2023/11/26 02:32:49;;;;;;;10.90;8.13;;;;;;;-1.41;87.58;98890.87;1755375;81;25408;-51
2023/11/26 02:35:18;;;;;;;11.57;8.48;;;;;;;-1.42;87.66;98900.41;1755348;81;26128;-52
2023/11/26 02:37:47;;;;;;;13.48;9.20;;;;;;;-1.40;87.86;98898.28;1755526;81;25586;-51
2023/11/26 02:40:19;;;;;;;11.68;8.85;;;;;;;-1.40;87.86;98895.09;1755371;81;27904;-51
2023/11/26 02:42:44;;;;;;;14.18;9.50;;;;;;;-1.39;87.95;98900.67;1729616;81;25913;-51
2023/11/26 02:45:13;;;;;;;15.03;9.05;;;;;;;-1.38;87.83;98898.81;1755361;81;25570;-52
2023/11/26 02:47:41;;;;;;;14.50;9.08;;;;;;;-1.39;87.79;98899.89;1755623;81;26328;-53
2023/11/26 02:50:10;;;;;;;14.58;8.73;;;;;;;-1.39;87.70;98903.87;1755486;81;25428;-55
2023/11/26 02:52:38;;;;;;;12.33;8.15;;;;;;;-1.39;87.83;98892.72;1755594;81;27314;-52
2023/11/26 02:55:08;;;;;;;11.53;7.90;;;;;;;-1.38;87.76;98900.14;1755428;81;25646;-52
2023/11/26 02:57:36;;;;;;;13.85;8.28;;;;;;;-1.36;87.77;98899.37;1728074;81;25503;-51
2023/11/26 03:00:15;;;;;;;12.15;8.98;;;;;;;-1.36;87.75;98900.70;1755418;81;25693;-51
2023/11/26 03:02:35;;;;;;;12.03;8.93;;;;;;;-1.33;87.89;98916.06;1720164;81;25668;-53
2023/11/26 03:05:17;;;;;;;12.65;8.70;;;;;;;-1.32;87.78;98912.36;1748418;81;27704;-51
2023/11/26 03:07:36;;;;;;;11.45;8.20;;;;;;;-1.32;87.73;98916.34;1745694;81;25551;-50
2023/11/26 03:15:27;;;;;;;12.63;8.33;;;;;;;-1.28;87.70;98932.52;1688209;84;25665;-54
2023/11/26 03:17:53;;;;;;;9.10;7.83;;;;;;;-1.28;87.65;98930.66;1688146;85;27930;-51
2023/11/26 03:20:21;;;;;;;9.98;7.00;;;;;;;-1.28;87.64;98929.87;1688137;85;25503;-54
2023/11/26 03:22:48;;;;;;;12.33;8.03;;;;;;;-1.27;87.67;98932.80;1688144;85;25604;-51
2023/11/26 03:25:16;;;;;;;12.47;8.38;;;;;;;-1.27;87.66;98942.88;1688112;85;26178;-51
2023/11/26 03:27:43;;;;;;;13.95;9.00;;;;;;;-1.28;87.57;98930.66;1688210;85;25513;-53
2023/11/26 03:30:11;;;;;;;12.88;8.78;;;;;;;-1.29;87.53;98933.06;1688105;85;27379;-51
2023/11/26 03:32:39;;;;;;;12.30;9.13;;;;;;;-1.27;87.51;98940.22;1688299;85;25704;-52
2023/11/26 03:35:08;;;;;;;14.05;9.55;;;;;;;-1.26;87.51;98936.52;1656209;85;25678;-55
2023/11/26 03:37:36;;;;;;;12.37;8.30;;;;;;;-1.24;87.50;98937.55;1688090;85;25629;-55
2023/11/26 03:40:10;;;;;;;15.28;10.15;;;;;;;-1.23;87.59;98940.48;1688178;85;25760;-53
2023/11/26 03:42:36;;;;;;;12.10;9.10;;;;;;;-1.21;87.67;98943.16;1687516;85;27692;-53
2023/11/26 03:45:07;;;;;;;11.45;8.15;;;;;;;-1.17;87.63;98951.38;1688135;85;25574;-51
2023/11/26 03:47:35;;;;;;;12.60;8.63;;;;;;;-1.17;87.59;98947.41;1688178;85;25454;-50
2023/11/26 03:50:08;;;;;;;13.22;9.45;;;;;;;-1.14;87.57;98948.20;1721393;81;25523;-51
2023/11/26 03:52:33;;;;;;;13.78;9.48;;;;;;;-1.13;87.54;98951.11;1710517;83;25586;-52
2023/11/26 03:55:01;;;;;;;11.05;8.50;;;;;;;-1.11;87.45;98946.86;1682195;83;27826;-52
2023/11/26 03:57:28;;;;;;;13.30;8.75;;;;;;;-1.11;87.49;98941.56;1723420;83;25490;-52
2023/11/26 03:59:57;;;;;;;12.82;8.43;;;;;;;-1.10;87.53;98939.97;1680199;83;25503;-52
2023/11/26 04:02:25;;;;;;;11.63;8.73;;;;;;;-1.09;87.52;98934.13;1723657;83;26367;-52
2023/11/26 04:04:52;;;;;;;12.53;8.80;;;;;;;-1.08;87.54;98945.80;1741513;82;25532;-96
2023/11/26 04:07:20;;;;;;;11.85;8.65;;;;;;;-1.08;87.51;98946.34;1655310;85;28085;-52
2023/11/26 04:09:49;;;;;;;12.30;8.63;;;;;;;-1.10;87.48;98937.31;1677366;85;25489;-49
2023/11/26 04:12:16;;;;;;;13.13;9.08;;;;;;;-1.07;87.57;98946.08;1677535;85;25456;-50
2023/11/26 04:14:58;;;;;;;10.63;8.08;;;;;;;-1.05;87.56;98949.80;1677470;85;25962;-53
2023/11/26 04:17:27;;;;;;;13.85;8.85;;;;;;;-1.05;87.63;98949.26;1677608;85;25668;-51
2023/11/26 04:19:54;;;;;;;11.48;8.73;;;;;;;-1.03;87.68;98959.61;1677486;85;27323;-51
2023/11/26 04:22:25;;;;;;;17.40;9.55;;;;;;;-1.02;87.68;98959.36;1677551;85;25759;-53
2023/11/26 04:24:54;;;;;;;14.23;9.43;;;;;;;-1.00;87.73;98960.42;1677566;85;25551;-51
2023/11/26 04:27:22;;;;;;;14.55;8.80;;;;;;;-1.00;87.72;98958.55;1677460;85;26031;-51
2023/11/26 04:29:50;;;;;;;15.08;8.45;;;;;;;-0.99;87.71;98968.12;1677481;85;25541;-50
2023/11/26 04:32:19;;;;;;;12.33;7.90;;;;;;;-0.98;87.71;98960.41;1727631;81;28112;-51
2023/11/26 04:34:47;;;;;;;11.05;8.13;;;;;;;-0.97;87.57;98965.17;1754735;81;26032;-51
2023/11/26 04:37:15;;;;;;;10.25;7.72;;;;;;;-0.98;87.58;98974.22;1754837;81;25438;-51
2023/11/26 04:39:43;;;;;;;12.13;7.97;;;;;;;-0.97;87.59;98975.28;1754912;81;25620;-51
2023/11/26 04:42:12;;;;;;;6.72;5.40;;;;;;;-0.95;87.77;98981.12;1754985;81;25480;-51
2023/11/26 04:44:38;;;;;;;10.48;7.15;;;;;;;-0.93;87.73;98976.09;1754801;81;28197;-51
2023/11/26 04:47:08;;;;;;;11.63;7.50;;;;;;;-0.92;87.78;98979.77;1754771;81;25429;-51
2023/11/26 04:49:35;;;;;;;11.12;7.33;;;;;;;-0.88;88.61;98978.74;1754942;81;25399;-52
2023/11/26 04:52:05;;;;;;;10.35;7.72;;;;;;;-0.86;87.95;98984.58;1754774;81;25495;-52
2023/11/26 04:54:31;;;;;;;10.75;7.58;;;;;;;-0.86;87.80;98989.34;1754913;81;25499;-51
2023/11/26 04:57:00;;;;;;;13.28;8.25;;;;;;;-0.84;87.61;98993.06;1754823;81;28332;-52
2023/11/26 04:59:27;;;;;;;11.22;6.80;;;;;;;-0.86;87.57;98989.89;1754709;81;25982;-54
2023/11/26 05:01:55;;;;;;;12.07;6.90;;;;;;;-0.86;87.53;98987.23;1754847;81;25364;-51
2023/11/26 05:04:24;;;;;;;9.48;6.58;;;;;;;-0.88;87.43;98986.16;1751753;81;26334;-50
2023/11/26 05:06:52;;;;;;;9.88;7.05;;;;;;;-0.87;87.54;98996.24;1710511;82;25626;-50
2023/11/26 05:09:22;;;;;;;10.80;6.72;;;;;;;-0.87;87.62;98994.41;1729289;81;27225;-51
2023/11/26 05:11:49;;;;;;;10.07;6.97;;;;;;;-0.87;87.47;98990.42;1729365;83;25626;-51
2023/11/26 05:14:16;;;;;;;10.08;6.85;;;;;;;-0.86;87.48;99005.27;1729250;83;25612;-52
2023/11/26 05:16:44;;;;;;;9.43;6.78;;;;;;;-0.85;87.54;98998.92;1729223;83;26528;-50
2023/11/26 05:19:12;;;;;;;9.63;6.40;;;;;;;-0.85;87.43;98996.77;1708466;83;25480;-53
2023/11/26 05:21:40;;;;;;;12.33;7.05;;;;;;;-0.86;87.41;98995.20;1716798;83;27331;-50
2023/11/26 05:24:10;;;;;;;6.90;5.92;;;;;;;-0.88;87.31;99002.63;1760741;81;25539;-52
2023/11/26 05:26:36;;;;;;;7.85;6.20;;;;;;;-0.88;87.40;98998.65;1729065;81;25516;-53
2023/11/26 05:29:05;;;;;;;10.20;7.53;;;;;;;-0.91;87.40;99010.58;1760755;81;25535;-51
2023/11/26 05:31:34;;;;;;;9.03;6.78;;;;;;;-0.91;87.44;99008.47;1728599;81;25661;-50
2023/11/26 05:34:02;;;;;;;13.40;8.18;;;;;;;-0.93;87.30;99025.20;1760866;81;28020;-50
2023/11/26 05:36:31;;;;;;;10.98;7.97;;;;;;;-0.96;87.21;99033.93;1760747;81;25743;-52
2023/11/26 05:39:00;;;;;;;10.40;7.03;;;;;;;-0.97;87.33;99042.97;1760758;81;25593;-53
2023/11/26 05:41:29;;;;;;;;;;;;;;;-0.98;87.35;99038.70;1763371;81;26289;-51
2023/11/26 05:43:58;;;;;;;12.58;7.35;;;;;;;-0.97;87.42;99044.81;1761590;81;25396;-54
2023/11/26 05:46:24;;;;;;;10.82;7.03;;;;;;;-0.98;87.50;99045.88;1761431;81;28137;-54
2023/11/26 05:48:54;;;;;;;10.18;6.83;;;;;;;-0.98;87.52;99048.00;1761196;81;25779;-54
2023/11/26 05:51:24;;;;;;;9.35;7.10;;;;;;;-0.98;87.42;99049.87;1760896;81;25563;-51
2023/11/26 05:53:52;;;;;;;11.28;7.72;;;;;;;-0.97;87.56;99054.09;1760846;81;25820;-51
2023/11/26 05:56:23;;;;;;;7.77;5.90;;;;;;;-0.97;87.57;99054.09;1761001;81;25464;-51
2023/11/26 05:58:49;;;;;;;10.43;7.72;;;;;;;-0.97;87.50;99050.94;1760706;81;27682;-51
2023/11/26 06:01:26;;;;;;;10.20;7.83;;;;;;;-0.98;87.40;99051.98;1760639;81;25446;-53
2023/11/26 06:03:54;;;;;;;11.35;7.72;;;;;;;-0.98;87.24;99063.14;1760652;81;25417;-51
2023/11/26 06:06:21;;;;;;;10.35;7.03;;;;;;;-0.99;87.21;99070.83;1760731;81;25517;-53
2023/11/26 06:08:49;;;;;;;10.18;7.80;;;;;;;-1.00;87.33;99075.88;1760745;81;25540;-51
2023/11/26 06:11:17;;;;;;;13.95;7.72;;;;;;;-1.00;87.37;99083.84;1760686;81;28122;-54
2023/11/26 06:13:47;;;;;;;10.25;7.67;;;;;;;-1.01;87.45;99088.88;1760678;81;25684;-51
2023/11/26 06:16:16;;;;;;;9.25;6.97;;;;;;;-1.03;87.38;99101.08;1760713;81;25433;-51
2023/11/26 06:18:43;;;;;;;10.48;7.10;;;;;;;-1.02;87.45;99099.21;1760659;81;26704;-54
2023/11/26 06:21:14;;;;;;;9.90;7.10;;;;;;;-1.03;87.48;99106.92;1760791;81;25473;-50
2023/11/26 06:23:41;;;;;;;8.18;6.45;;;;;;;-1.06;87.43;99108.77;1760928;81;27219;-50
2023/11/26 06:26:07;;;;;;;10.08;6.80;;;;;;;-1.04;87.47;99120.73;1760773;81;25606;-49
2023/11/26 06:28:38;;;;;;;7.80;6.87;;;;;;;-1.04;87.42;99118.59;1760815;81;25510;-50
2023/11/26 06:31:06;;;;;;;10.40;7.20;;;;;;;-1.05;87.51;99117.80;1760804;81;26396;-50
2023/11/26 06:33:33;;;;;;;8.70;6.85;;;;;;;-1.04;87.53;99120.73;1760860;81;25622;-50
2023/11/26 06:36:01;;;;;;;9.13;6.40;;;;;;;-1.03;87.47;99123.64;1760861;81;27454;-50
2023/11/26 06:38:28;;;;;;;8.08;7.05;;;;;;;-1.04;87.43;99130.02;1760737;81;25672;-51
2023/11/26 06:40:55;;;;;;;10.05;7.70;;;;;;;-1.02;87.60;99135.86;1760851;81;25612;-51
2023/11/26 06:43:21;;;;;;;9.33;6.55;;;;;;;-0.99;87.54;99141.17;1760843;81;25976;-51
2023/11/26 06:45:50;;;;;;;9.08;6.87;;;;;;;-0.99;87.59;99148.63;1760882;81;25382;-50
2023/11/26 06:48:20;;;;;;;8.88;7.22;;;;;;;-0.98;87.55;99147.55;1760867;81;28212;-50
2023/11/26 06:50:48;;;;;;;9.45;7.05;;;;;;;-0.98;87.46;99152.06;1760704;81;25610;-50
2023/11/26 06:53:17;;;;;;;9.58;7.37;;;;;;;-0.97;87.46;99158.95;1760837;81;25461;-52
2023/11/26 06:55:46;;;;;;;8.87;7.17;;;;;;;-0.97;87.50;99161.09;1761040;81;25627;-50
2023/11/26 06:58:14;;;;;;;11.53;7.83;;;;;;;-0.95;87.49;99171.46;1761101;81;25606;-52
2023/11/26 07:00:41;;;;;;;10.60;8.03;;;;;;;-0.94;87.53;99171.71;1760867;81;27235;-51
2023/11/26 07:03:09;;;;;;;11.80;8.10;;;;;;;-0.93;87.53;99175.98;1760743;81;25535;-51
2023/11/26 07:05:40;;;;;;;10.18;8.10;;;;;;;-0.90;87.53;99177.30;1757598;81;25404;-52
2023/11/26 07:08:09;;;;;;;11.43;8.30;;;;;;;-0.89;87.42;99166.95;1755688;81;26200;-54
2023/11/26 07:10:40;;;;;;;11.22;8.28;;;;;;;-0.89;87.36;99178.37;1755638;81;32376;-51
2023/11/26 07:13:07;;;;;;;12.07;8.40;;;;;;;-0.88;87.35;99185.82;1755523;81;27374;-52
2023/11/26 07:15:35;;;;;;;11.38;8.70;;;;;;;-0.86;87.48;99187.69;1755373;81;25546;-50
2023/11/26 07:18:02;;;;;;;12.77;8.67;;;;;;;-0.85;87.42;99196.72;1755708;81;25631;-51
2023/11/26 07:20:32;;;;;;;12.47;8.73;;;;;;;-0.84;87.27;99200.16;1755341;81;26475;-52
2023/11/26 07:22:59;;;;;;;11.12;8.80;;;;;;;-0.84;87.31;99204.94;1755590;81;25438;-50
2023/11/26 07:25:29;;;;;;;14.50;9.15;;;;;;;-0.83;87.46;99207.08;1755474;81;28345;-53
2023/11/26 07:27:58;;;;;;;12.37;8.65;;;;;;;-0.81;87.40;99218.23;1755363;81;25798;-52
2023/11/26 07:30:26;;;;;;;15.20;9.73;;;;;;;-0.80;87.35;99220.63;1755407;81;25502;-53
2023/11/26 07:32:52;;;;;;;9.63;8.00;;;;;;;-0.78;87.27;99222.49;1755370;81;25619;-52
2023/11/26 07:35:23;;;;;;;14.43;7.95;;;;;;;-0.77;87.25;99226.76;1755454;81;25466;-51
2023/11/26 07:37:51;;;;;;;10.93;7.00;;;;;;;-0.78;87.19;99227.80;1755565;81;27405;-52
2023/11/26 07:40:21;;;;;;;8.05;6.95;;;;;;;-0.77;86.85;99229.41;1755448;81;25720;-51
2023/11/26 07:42:50;;;;;;;8.40;6.83;;;;;;;-0.81;86.79;99232.30;1755533;81;25851;-51
2023/11/26 07:45:18;;;;;;;8.68;6.87;;;;;;;-0.79;86.87;99226.73;1756042;81;26291;-51
2023/11/26 07:47:45;;;;;;;10.53;7.00;;;;;;;-0.81;86.72;99234.95;1755644;81;25608;-52
2023/11/26 07:50:12;;;;;;;9.38;7.17;;;;;;;-0.82;86.51;99237.36;1755390;81;27924;-53
2023/11/26 07:52:40;;;;;;;8.75;6.97;;;;;;;-0.81;86.47;99246.12;1755342;81;25381;-50
2023/11/26 07:55:09;;;;;;;9.98;7.72;;;;;;;-0.81;86.42;99238.94;1755460;81;25657;-50
2023/11/26 07:57:37;;;;;;;10.55;8.05;;;;;;;-0.82;86.48;99233.38;1755516;81;25619;-51
2023/11/26 08:00:14;;;;;;;11.93;8.17;;;;;;;-0.76;86.66;99232.86;1755704;81;25644;-53
2023/11/26 08:02:38;;;;;;;13.20;8.93;;;;;;;-0.67;86.85;99234.48;1753562;81;27338;-53
2023/11/26 08:05:18;;;;;;;11.30;8.63;;;;;;;-0.56;87.54;99234.80;1753898;81;26075;-50
2023/11/26 08:07:45;;;;;;;10.85;8.18;;;;;;;-0.39;87.80;99235.91;1746062;82;25701;-50
2023/11/26 08:10:18;;;;;;;12.07;8.68;;;;;;;-0.21;87.97;99238.05;1746724;81;25624;-52
2023/11/26 08:12:42;;;;;;;9.75;7.85;;;;;;;-0.05;87.68;99232.23;1746250;82;25416;-51
2023/11/26 08:15:19;;;;;;;14.00;9.23;;;;;;;0.07;87.01;99231.98;1747167;82;28202;-53
2023/11/26 08:17:50;;;;;;;11.80;8.05;;;;;;;0.18;86.92;99244.20;1746399;82;25744;-52
2023/11/26 08:20:16;;;;;;;12.28;7.90;;;;;;;0.19;85.94;99241.03;1746472;82;25401;-51
2023/11/26 08:22:46;;;;;;;10.10;7.97;;;;;;;0.24;85.31;99247.68;1747311;82;26355;-51
2023/11/26 08:25:17;;;;;;;10.78;7.95;;;;;;;0.27;84.45;99249.78;1746792;82;25451;-51
2023/11/26 08:27:45;;;;;;;13.35;9.10;;;;;;;0.35;85.54;99260.44;1746997;81;27347;-51
2023/11/26 08:30:30;;;;;;;13.03;9.35;;;;;;;0.52;85.06;99261.50;1747200;82;35048;-53
2023/11/26 08:32:46;;;;;;;13.30;9.28;;;;;;;0.55;84.36;99264.42;1744275;81;25662;-52
2023/11/26 08:35:16;;;;;;;14.50;10.45;;;;;;;0.60;83.87;99267.62;1747145;82;25626;-51
2023/11/26 08:37:45;;;;;;;13.05;9.35;;;;;;;0.65;83.76;99263.63;1747330;82;25566;-51
2023/11/26 08:40:14;;;;;;;11.68;9.20;;;;;;;0.68;83.08;99266.27;1747083;82;28359;-51
2023/11/26 08:42:42;;;;;;;13.80;9.78;;;;;;;0.64;82.58;99266.55;1747243;82;25692;-53
2023/11/26 08:45:10;;;;;;;13.13;9.70;;;;;;;0.62;82.36;99272.13;1747027;82;25585;-54
2023/11/26 08:47:42;;;;;;;12.73;9.70;;;;;;;0.62;81.96;99269.47;1714412;83;25625;-52
2023/11/26 08:50:10;;;;;;;11.22;9.20;;;;;;;0.65;82.44;99264.16;1722973;83;25400;-50
2023/11/26 08:52:38;;;;;;;13.80;9.38;;;;;;;0.70;82.24;99267.61;1723693;83;31163;-52
2023/11/26 08:55:09;;;;;;;14.43;9.25;;;;;;;0.79;82.59;99272.39;1723442;83;25609;-53
2023/11/26 08:57:40;;;;;;;12.95;8.80;;;;;;;0.92;82.61;99255.31;1723567;83;25585;-51
2023/11/26 09:00:11;;;;;;;11.73;7.83;;;;;;;1.01;82.34;99259.55;1723551;83;25616;-51
2023/11/26 09:02:44;;;;;;;9.20;7.67;;;;;;;1.11;82.07;99258.19;1681155;83;25581;-51
2023/11/26 09:05:10;;;;;;;8.98;7.20;;;;;;;1.18;81.24;99257.91;1722476;82;27349;-51
2023/11/26 09:07:44;;;;;;;12.83;8.03;;;;;;;1.18;80.73;99267.77;1723730;83;25608;-52
2023/11/26 09:10:13;;;;;;;9.40;7.28;;;;;;;1.19;80.84;99274.16;1723565;83;25534;-51
2023/11/26 09:12:41;;;;;;;10.55;8.05;;;;;;;1.19;80.69;99268.84;1723649;83;26308;-53
2023/11/26 09:15:11;;;;;;;13.18;9.35;;;;;;;1.21;80.79;99276.02;1723515;83;25571;-53
2023/11/26 09:17:39;;;;;;;;;;;;;;;1.18;80.32;99269.89;1726044;83;27412;-53
2023/11/26 09:20:11;;;;;;;14.23;8.98;;;;;;;1.13;79.70;99272.57;1723457;83;25632;-55
2023/11/26 09:22:41;;;;;;;12.25;8.18;;;;;;;1.05;79.95;99271.25;1683394;85;25578;-52
2023/11/26 09:25:14;;;;;;;11.90;8.35;;;;;;;1.00;79.56;99277.92;1683354;85;26234;-51
2023/11/26 09:27:42;;;;;;;12.53;9.48;;;;;;;0.94;79.62;99265.70;1683414;85;25477;-55
2023/11/26 09:30:12;;;;;;;10.55;8.23;;;;;;;0.90;79.82;99273.44;1683305;84;27788;-56
2023/11/26 09:32:43;;;;;;;10.15;8.25;;;;;;;0.89;79.77;99273.16;1683273;85;25752;-49
2023/11/26 09:35:10;;;;;;;10.80;8.30;;;;;;;0.90;79.78;99276.09;1683387;85;25589;-52
2023/11/26 09:37:36;;;;;;;11.33;8.53;;;;;;;0.93;80.29;99280.07;1683310;85;25952;-52
2023/11/26 09:40:06;;;;;;;12.07;7.90;;;;;;;0.93;80.33;99280.07;1683358;85;25451;-51
2023/11/26 09:42:34;;;;;;;11.70;8.20;;;;;;;0.91;79.86;99280.34;1684666;85;27434;-50
2023/11/26 09:45:04;;;;;;;10.90;8.13;;;;;;;0.87;79.79;99284.62;1683255;85;25858;-50
2023/11/26 09:47:32;;;;;;;;;;;;;;;0.82;79.76;99273.98;1685857;85;25570;-50
2023/11/26 09:50:00;;;;;;;11.48;9.23;;;;;;;0.85;80.44;99271.30;1705521;84;25575;-51
2023/11/26 09:52:30;;;;;;;13.83;9.17;;;;;;;0.97;81.26;99266.50;1747744;81;25619;-50
2023/11/26 09:54:59;;;;;;;15.80;8.93;;;;;;;1.23;82.93;99263.76;1747232;82;27289;-55
2023/11/26 09:57:29;;;;;;;;;;;;;;;1.55;82.05;99258.55;1749817;82;25584;-52
2023/11/26 09:59:57;;;;;;;12.78;8.28;;;;;;;1.60;81.02;99260.67;1747498;82;25469;-50
2023/11/26 10:02:25;;;;;;;11.05;8.33;;;;;;;1.61;80.15;99264.91;1747427;82;26012;-54
2023/11/26 10:04:54;;;;;;;11.38;8.18;;;;;;;1.56;79.65;99269.48;1746058;82;25536;-51
2023/11/26 10:07:35;;;;;;;14.83;8.55;;;;;;;1.46;79.44;99268.47;1758573;81;28104;-50
2023/11/26 10:10:09;;;;;;;10.82;6.78;;;;;;;1.39;79.28;99263.94;1716453;83;26052;-51
2023/11/26 10:12:58;;;;;;;11.00;7.40;;;;;;;1.26;79.12;99264.01;1760961;81;25402;-51
2023/11/26 10:15:30;;;;;;;9.35;6.85;;;;;;;1.16;79.08;99271.22;1717096;83;25613;-55
2023/11/26 10:18:13;;;;;;;11.93;7.58;;;;;;;1.11;79.49;99267.52;1761070;81;25447;-54
2023/11/26 10:20:43;;;;;;;10.63;8.03;;;;;;;1.04;79.72;99271.00;1758821;81;27355;-52
2023/11/26 10:23:13;;;;;;;11.25;7.67;;;;;;;1.03;79.93;99273.39;1760856;81;25593;-53
2023/11/26 10:25:46;;;;;;;10.40;7.78;;;;;;;1.00;79.99;99275.26;1761304;81;25579;-54
2023/11/26 10:28:15;;;;;;;13.48;7.53;;;;;;;0.96;80.07;99270.77;1761425;81;25643;-54
2023/11/26 10:30:46;;;;;;;10.90;7.17;;;;;;;0.95;80.09;99270.48;1761532;81;25523;-56
2023/11/26 10:33:14;;;;;;;9.73;6.78;;;;;;;0.99;80.39;99255.55;1761290;81;27340;-51
2023/11/26 10:35:55;;;;;;;8.68;6.90;;;;;;;1.15;80.71;99261.11;1760748;81;25847;-51
2023/11/26 10:38:25;;;;;;;8.85;7.40;;;;;;;1.28;80.72;99258.41;1760906;81;25623;-51
2023/11/26 10:40:57;;;;;;;10.00;7.08;;;;;;;1.74;82.20;99256.04;1760895;81;26326;-51
2023/11/26 10:43:28;;;;;;;11.45;7.65;;;;;;;2.46;85.20;99267.02;1760934;81;25410;-52
2023/11/26 10:45:56;;;;;;;9.15;7.33;;;;;;;3.13;84.77;99260.50;1760911;81;27360;-52
2023/11/26 10:48:26;;;;;;;12.18;8.03;;;;;;;3.58;81.83;99264.23;1760719;81;27128;-52
2023/11/26 10:51:12;;;;;;;11.35;8.38;;;;;;;3.89;81.06;99271.30;1760843;81;25431;-51
2023/11/26 10:54:10;;;;;;;10.18;7.95;;;;;;;4.41;81.58;99263.30;1743784;82;25484;-51
2023/11/26 10:56:41;;;;;;;12.43;7.40;;;;;;;4.85;79.59;99276.76;1745615;82;25574;-51
2023/11/26 10:59:18;;;;;;;10.63;7.12;;;;;;;4.97;76.88;99273.59;1745453;81;28089;-55
2023/11/26 11:01:47;;;;;;;9.25;6.55;;;;;;;5.08;76.80;99273.41;1744188;82;25395;-54
2023/11/26 11:04:16;;;;;;;6.97;5.65;;;;;;;5.51;76.86;99267.73;1745549;82;25447;-55
2023/11/26 11:06:44;;;;;;;6.70;4.77;;;;;;;5.65;74.33;99273.06;1734085;82;26619;-56
2023/11/26 11:09:17;;;;;;;5.28;4.42;;;;;;;5.59;71.13;99263.00;1721608;82;25560;-54
2023/11/26 11:11:55;;;;;;;5.37;4.25;;;;;;;5.30;70.41;99266.02;1709939;83;27501;-54
2023/11/26 11:14:24;;;;;;;6.28;4.25;;;;;;;5.03;70.45;99271.61;1723243;83;25398;-56
2023/11/26 11:16:52;;;;;;;;;;;;;;;4.74;69.37;99271.31;1726170;83;25555;-53
2023/11/26 11:19:52;;;;;;;6.55;3.58;;;;;;;4.45;68.35;99267.53;1723532;83;25605;-53
2023/11/26 11:22:33;;;;;;;5.85;3.67;;;;;;;4.12;68.54;99266.17;1686432;85;25675;-52
2023/11/26 11:25:14;;;;;;;9.70;4.37;;;;;;;3.78;68.31;99264.52;1652723;86;28238;-51
2023/11/26 11:27:58;;;;;;;44.10;19.12;;;;;;;3.61;69.51;99270.88;1686167;85;26014;-55
2023/11/26 11:30:46;;;;;;;67.42;27.60;;;;;;;3.50;69.77;99268.88;1686126;84;25498;-54
2023/11/26 11:33:13;;;;;;;50.95;21.20;;;;;;;3.39;69.83;99262.88;1686053;84;25969;-55
2023/11/26 11:35:46;;;;;;;33.13;15.25;;;;;;;3.47;70.70;99268.90;1663554;85;25530;-55
2023/11/26 11:38:17;;;;;;;11.73;5.75;;;;;;;3.76;71.07;99265.33;1686381;85;27352;-54
2023/11/26 11:41:13;;;;;;;21.55;8.73;;;;;;;3.80;69.99;99262.34;1686046;85;25741;-52
2023/11/26 11:43:43;;;;;;;13.10;6.35;;;;;;;3.81;70.14;99264.47;1686556;85;25465;-56